sensor_id;sensor_type;location;lat;lon;timestamp;P1;durP1;ratioP1;P2;durP2;ratioP2
34317;SDS011;20582;52.196;20.952;2023-01-01T00:02:26;13.27;;;7.00;;
34317;SDS011;20582;52.196;20.952;2023-01-01T00:04:52;14.25;;;6.68;;
34317;SDS011;20582;52.196;20.952;2023-01-01T00:07:18;12.60;;;6.10;;
34317;SDS011;20582;52.196;20.952;2023-01-01T00:09:44;9.75;;;5.65;;
34317;SDS011;20582;52.196;20.952;2023-01-01T00:12:29;12.18;;;5.90;;
34317;SDS011;20582;52.196;20.952;2023-01-01T00:14:55;10.65;;;5.47;;
34317;SDS011;20582;52.196;20.952;2023-01-01T00:17:21;11.50;;;5.28;;
34317;SDS011;20582;52.196;20.952;2023-01-01T00:19:47;11.23;;;5.40;;
34317;SDS011;20582;52.196;20.952;2023-01-01T00:22:13;11.57;;;5.53;;
34317;SDS011;20582;52.196;20.952;2023-01-01T00:24:39;11.02;;;5.28;;
34317;SDS011;20582;52.196;20.952;2023-01-01T00:27:05;9.88;;;5.13;;
34317;SDS011;20582;52.196;20.952;2023-01-01T00:29:31;10.82;;;4.75;;
34317;SDS011;20582;52.196;20.952;2023-01-01T00:31:57;10.55;;;5.22;;
34317;SDS011;20582;52.196;20.952;2023-01-01T00:34:23;10.77;;;5.00;;
34317;SDS011;20582;52.196;20.952;2023-01-01T00:36:49;12.02;;;5.57;;
34317;SDS011;20582;52.196;20.952;2023-01-01T00:39:15;11.07;;;5.20;;
34317;SDS011;20582;52.196;20.952;2023-01-01T00:41:41;10.23;;;5.47;;
34317;SDS011;20582;52.196;20.952;2023-01-01T00:44:07;10.20;;;5.38;;
34317;SDS011;20582;52.196;20.952;2023-01-01T00:46:33;10.80;;;5.13;;
34317;SDS011;20582;52.196;20.952;2023-01-01T00:48:59;11.75;;;5.43;;
34317;SDS011;20582;52.196;20.952;2023-01-01T00:51:25;11.13;;;5.50;;
34317;SDS011;20582;52.196;20.952;2023-01-01T00:53:51;11.93;;;5.28;;
34317;SDS011;20582;52.196;20.952;2023-01-01T00:56:17;10.82;;;5.63;;
34317;SDS011;20582;52.196;20.952;2023-01-01T00:58:43;10.00;;;5.57;;
34317;SDS011;20582;52.196;20.952;2023-01-01T01:01:09;11.27;;;5.50;;
34317;SDS011;20582;52.196;20.952;2023-01-01T01:03:37;10.95;;;5.03;;
34317;SDS011;20582;52.196;20.952;2023-01-01T01:08:29;12.88;;;5.90;;
34317;SDS011;20582;52.196;20.952;2023-01-01T01:11:02;9.07;;;5.10;;
34317;SDS011;20582;52.196;20.952;2023-01-01T01:13:28;12.60;;;5.57;;
34317;SDS011;20582;52.196;20.952;2023-01-01T01:15:54;9.82;;;5.13;;
34317;SDS011;20582;52.196;20.952;2023-01-01T01:18:20;10.63;;;5.20;;
34317;SDS011;20582;52.196;20.952;2023-01-01T01:20:50;11.30;;;5.28;;
34317;SDS011;20582;52.196;20.952;2023-01-01T01:23:16;10.52;;;5.18;;
34317;SDS011;20582;52.196;20.952;2023-01-01T01:25:42;13.30;;;5.80;;
34317;SDS011;20582;52.196;20.952;2023-01-01T01:28:08;11.75;;;5.28;;
34317;SDS011;20582;52.196;20.952;2023-01-01T01:30:36;9.43;;;4.93;;
34317;SDS011;20582;52.196;20.952;2023-01-01T01:33:02;9.65;;;4.93;;
34317;SDS011;20582;52.196;20.952;2023-01-01T01:35:28;11.18;;;5.22;;
34317;SDS011;20582;52.196;20.952;2023-01-01T01:37:54;9.52;;;4.82;;
34317;SDS011;20582;52.196;20.952;2023-01-01T01:40:20;10.73;;;4.47;;
34317;SDS011;20582;52.196;20.952;2023-01-01T01:42:47;10.48;;;4.70;;
34317;SDS011;20582;52.196;20.952;2023-01-01T01:45:13;10.25;;;5.05;;
34317;SDS011;20582;52.196;20.952;2023-01-01T01:47:54;9.23;;;4.63;;
34317;SDS011;20582;52.196;20.952;2023-01-01T01:50:22;12.13;;;5.18;;
34317;SDS011;20582;52.196;20.952;2023-01-01T01:53:06;11.68;;;5.53;;
34317;SDS011;20582;52.196;20.952;2023-01-01T01:55:38;11.77;;;5.88;;
34317;SDS011;20582;52.196;20.952;2023-01-01T01:58:05;10.98;;;5.57;;
34317;SDS011;20582;52.196;20.952;2023-01-01T02:00:33;10.23;;;5.15;;
34317;SDS011;20582;52.196;20.952;2023-01-01T02:03:06;11.85;;;5.80;;
34317;SDS011;20582;52.196;20.952;2023-01-01T02:05:33;11.25;;;5.15;;
34317;SDS011;20582;52.196;20.952;2023-01-01T02:08:00;12.73;;;6.10;;
34317;SDS011;20582;52.196;20.952;2023-01-01T02:10:27;12.32;;;6.28;;
34317;SDS011;20582;52.196;20.952;2023-01-01T02:12:53;12.13;;;5.70;;
34317;SDS011;20582;52.196;20.952;2023-01-01T02:15:20;10.98;;;5.68;;
34317;SDS011;20582;52.196;20.952;2023-01-01T02:17:53;10.00;;;5.70;;
34317;SDS011;20582;52.196;20.952;2023-01-01T02:20:26;10.55;;;5.80;;
34317;SDS011;20582;52.196;20.952;2023-01-01T02:30:33;11.27;;;5.75;;
34317;SDS011;20582;52.196;20.952;2023-01-01T02:33:02;9.63;;;5.18;;
34317;SDS011;20582;52.196;20.952;2023-01-01T02:35:31;8.38;;;5.13;;
34317;SDS011;20582;52.196;20.952;2023-01-01T02:38:20;9.48;;;5.10;;
34317;SDS011;20582;52.196;20.952;2023-01-01T02:40:48;10.13;;;5.25;;
34317;SDS011;20582;52.196;20.952;2023-01-01T02:43:15;11.57;;;5.88;;
34317;SDS011;20582;52.196;20.952;2023-01-01T02:45:41;10.70;;;5.70;;
34317;SDS011;20582;52.196;20.952;2023-01-01T02:50:52;12.05;;;5.55;;
34317;SDS011;20582;52.196;20.952;2023-01-01T03:01:00;10.15;;;4.72;;
34317;SDS011;20582;52.196;20.952;2023-01-01T03:03:34;9.15;;;4.88;;
34317;SDS011;20582;52.196;20.952;2023-01-01T03:11:34;7.88;;;4.45;;
34317;SDS011;20582;52.196;20.952;2023-01-01T03:16:54;10.35;;;4.68;;
34317;SDS011;20582;52.196;20.952;2023-01-01T03:19:22;10.18;;;4.55;;
34317;SDS011;20582;52.196;20.952;2023-01-01T03:21:50;10.70;;;4.95;;
34317;SDS011;20582;52.196;20.952;2023-01-01T03:24:23;10.13;;;5.07;;
34317;SDS011;20582;52.196;20.952;2023-01-01T03:26:51;8.20;;;4.30;;
34317;SDS011;20582;52.196;20.952;2023-01-01T03:29:17;8.02;;;4.25;;
34317;SDS011;20582;52.196;20.952;2023-01-01T03:31:43;8.32;;;4.50;;
34317;SDS011;20582;52.196;20.952;2023-01-01T03:34:12;8.57;;;4.45;;
34317;SDS011;20582;52.196;20.952;2023-01-01T03:36:40;9.52;;;4.68;;
34317;SDS011;20582;52.196;20.952;2023-01-01T03:39:12;10.75;;;4.72;;
34317;SDS011;20582;52.196;20.952;2023-01-01T03:41:42;8.95;;;4.78;;
34317;SDS011;20582;52.196;20.952;2023-01-01T03:44:17;10.15;;;4.80;;
34317;SDS011;20582;52.196;20.952;2023-01-01T03:46:45;9.20;;;4.68;;
34317;SDS011;20582;52.196;20.952;2023-01-01T03:49:11;12.18;;;5.22;;
34317;SDS011;20582;52.196;20.952;2023-01-01T03:54:32;10.05;;;4.63;;
34317;SDS011;20582;52.196;20.952;2023-01-01T03:57:19;8.60;;;4.40;;
34317;SDS011;20582;52.196;20.952;2023-01-01T04:00:03;9.70;;;4.78;;
34317;SDS011;20582;52.196;20.952;2023-01-01T04:02:33;10.65;;;5.13;;
34317;SDS011;20582;52.196;20.952;2023-01-01T04:05:01;9.70;;;4.32;;
34317;SDS011;20582;52.196;20.952;2023-01-01T04:07:29;7.90;;;4.32;;
34317;SDS011;20582;52.196;20.952;2023-01-01T04:09:55;9.93;;;4.85;;
34317;SDS011;20582;52.196;20.952;2023-01-01T04:12:22;8.75;;;4.57;;
34317;SDS011;20582;52.196;20.952;2023-01-01T04:14:48;8.93;;;4.80;;
34317;SDS011;20582;52.196;20.952;2023-01-01T04:17:14;9.65;;;4.80;;
34317;SDS011;20582;52.196;20.952;2023-01-01T04:19:40;9.25;;;4.70;;
34317;SDS011;20582;52.196;20.952;2023-01-01T04:22:06;9.32;;;4.28;;
34317;SDS011;20582;52.196;20.952;2023-01-01T04:24:32;9.38;;;4.13;;
34317;SDS011;20582;52.196;20.952;2023-01-01T04:26:58;8.50;;;4.35;;
34317;SDS011;20582;52.196;20.952;2023-01-01T04:29:24;8.77;;;4.50;;
34317;SDS011;20582;52.196;20.952;2023-01-01T04:31:50;9.07;;;4.90;;
34317;SDS011;20582;52.196;20.952;2023-01-01T04:34:16;8.98;;;4.30;;
34317;SDS011;20582;52.196;20.952;2023-01-01T04:36:42;9.05;;;4.22;;
34317;SDS011;20582;52.196;20.952;2023-01-01T04:39:08;9.30;;;4.28;;
34317;SDS011;20582;52.196;20.952;2023-01-01T04:41:34;8.57;;;4.40;;
34317;SDS011;20582;52.196;20.952;2023-01-01T04:44:00;8.02;;;4.35;;
34317;SDS011;20582;52.196;20.952;2023-01-01T04:46:26;7.78;;;4.22;;
34317;SDS011;20582;52.196;20.952;2023-01-01T04:48:52;8.50;;;4.30;;
34317;SDS011;20582;52.196;20.952;2023-01-01T04:51:19;8.65;;;4.30;;
34317;SDS011;20582;52.196;20.952;2023-01-01T04:53:45;9.70;;;4.63;;
34317;SDS011;20582;52.196;20.952;2023-01-01T04:56:12;9.77;;;4.28;;
34317;SDS011;20582;52.196;20.952;2023-01-01T04:58:39;8.43;;;4.38;;
34317;SDS011;20582;52.196;20.952;2023-01-01T05:01:05;12.18;;;4.47;;
34317;SDS011;20582;52.196;20.952;2023-01-01T05:03:31;9.55;;;4.10;;
34317;SDS011;20582;52.196;20.952;2023-01-01T05:05:58;8.35;;;4.13;;
34317;SDS011;20582;52.196;20.952;2023-01-01T05:08:24;10.48;;;4.70;;
34317;SDS011;20582;52.196;20.952;2023-01-01T05:10:50;8.32;;;4.28;;
34317;SDS011;20582;52.196;20.952;2023-01-01T05:13:16;10.05;;;4.50;;
34317;SDS011;20582;52.196;20.952;2023-01-01T05:15:42;8.75;;;4.22;;
34317;SDS011;20582;52.196;20.952;2023-01-01T05:18:08;8.73;;;4.03;;
34317;SDS011;20582;52.196;20.952;2023-01-01T05:20:34;6.72;;;3.65;;
34317;SDS011;20582;52.196;20.952;2023-01-01T05:23:00;7.13;;;3.80;;
34317;SDS011;20582;52.196;20.952;2023-01-01T05:25:26;11.73;;;4.10;;
34317;SDS011;20582;52.196;20.952;2023-01-01T05:27:52;10.82;;;4.13;;
34317;SDS011;20582;52.196;20.952;2023-01-01T05:30:18;7.78;;;3.80;;
34317;SDS011;20582;52.196;20.952;2023-01-01T05:32:44;9.93;;;4.13;;
34317;SDS011;20582;52.196;20.952;2023-01-01T05:35:10;8.90;;;4.10;;
34317;SDS011;20582;52.196;20.952;2023-01-01T05:37:36;9.18;;;3.83;;
34317;SDS011;20582;52.196;20.952;2023-01-01T05:40:02;7.10;;;3.67;;
34317;SDS011;20582;52.196;20.952;2023-01-01T05:42:28;11.05;;;4.10;;
34317;SDS011;20582;52.196;20.952;2023-01-01T05:44:54;9.73;;;4.15;;
34317;SDS011;20582;52.196;20.952;2023-01-01T05:47:20;9.90;;;3.67;;
34317;SDS011;20582;52.196;20.952;2023-01-01T05:49:46;8.57;;;4.03;;
34317;SDS011;20582;52.196;20.952;2023-01-01T05:52:12;9.95;;;3.83;;
34317;SDS011;20582;52.196;20.952;2023-01-01T05:54:38;8.52;;;4.25;;
34317;SDS011;20582;52.196;20.952;2023-01-01T05:57:04;7.88;;;3.58;;
34317;SDS011;20582;52.196;20.952;2023-01-01T05:59:30;10.27;;;4.40;;
34317;SDS011;20582;52.196;20.952;2023-01-01T06:01:56;7.43;;;4.05;;
34317;SDS011;20582;52.196;20.952;2023-01-01T06:04:22;8.32;;;3.80;;
34317;SDS011;20582;52.196;20.952;2023-01-01T06:06:47;11.23;;;3.70;;
34317;SDS011;20582;52.196;20.952;2023-01-01T06:09:13;8.68;;;4.07;;
34317;SDS011;20582;52.196;20.952;2023-01-01T06:11:39;9.00;;;3.85;;
34317;SDS011;20582;52.196;20.952;2023-01-01T06:14:05;9.75;;;4.15;;
34317;SDS011;20582;52.196;20.952;2023-01-01T06:16:31;9.20;;;4.28;;
34317;SDS011;20582;52.196;20.952;2023-01-01T06:18:57;9.90;;;4.28;;
34317;SDS011;20582;52.196;20.952;2023-01-01T06:21:24;10.00;;;4.45;;
34317;SDS011;20582;52.196;20.952;2023-01-01T06:23:51;9.07;;;3.85;;
34317;SDS011;20582;52.196;20.952;2023-01-01T06:26:18;10.05;;;3.97;;
34317;SDS011;20582;52.196;20.952;2023-01-01T06:28:44;9.35;;;4.28;;
34317;SDS011;20582;52.196;20.952;2023-01-01T06:31:12;8.77;;;4.38;;
34317;SDS011;20582;52.196;20.952;2023-01-01T06:33:38;10.95;;;4.43;;
34317;SDS011;20582;52.196;20.952;2023-01-01T06:36:05;8.75;;;4.22;;
34317;SDS011;20582;52.196;20.952;2023-01-01T06:38:32;8.38;;;3.97;;
34317;SDS011;20582;52.196;20.952;2023-01-01T06:40:58;9.80;;;4.30;;
34317;SDS011;20582;52.196;20.952;2023-01-01T06:43:25;8.75;;;3.90;;
34317;SDS011;20582;52.196;20.952;2023-01-01T06:46:00;7.28;;;3.88;;
34317;SDS011;20582;52.196;20.952;2023-01-01T06:48:27;9.63;;;4.15;;
34317;SDS011;20582;52.196;20.952;2023-01-01T06:50:53;9.70;;;4.13;;
34317;SDS011;20582;52.196;20.952;2023-01-01T06:53:22;9.98;;;4.25;;
34317;SDS011;20582;52.196;20.952;2023-01-01T06:55:48;8.18;;;3.72;;
34317;SDS011;20582;52.196;20.952;2023-01-01T06:58:14;9.73;;;4.00;;
34317;SDS011;20582;52.196;20.952;2023-01-01T07:00:40;9.18;;;4.55;;
34317;SDS011;20582;52.196;20.952;2023-01-01T07:03:08;9.40;;;3.90;;
34317;SDS011;20582;52.196;20.952;2023-01-01T07:05:34;9.30;;;4.22;;
34317;SDS011;20582;52.196;20.952;2023-01-01T07:08:00;8.40;;;3.90;;
34317;SDS011;20582;52.196;20.952;2023-01-01T07:10:26;8.93;;;3.85;;
34317;SDS011;20582;52.196;20.952;2023-01-01T07:12:52;9.60;;;4.07;;
34317;SDS011;20582;52.196;20.952;2023-01-01T07:15:18;10.25;;;4.43;;
34317;SDS011;20582;52.196;20.952;2023-01-01T07:17:44;10.55;;;4.40;;
34317;SDS011;20582;52.196;20.952;2023-01-01T07:20:10;9.55;;;4.05;;
34317;SDS011;20582;52.196;20.952;2023-01-01T07:22:36;10.43;;;4.00;;
34317;SDS011;20582;52.196;20.952;2023-01-01T07:25:03;9.13;;;3.90;;
34317;SDS011;20582;52.196;20.952;2023-01-01T07:27:29;11.82;;;4.40;;
34317;SDS011;20582;52.196;20.952;2023-01-01T07:29:59;11.60;;;4.40;;
34317;SDS011;20582;52.196;20.952;2023-01-01T07:32:25;10.07;;;4.43;;
34317;SDS011;20582;52.196;20.952;2023-01-01T07:34:51;11.10;;;4.75;;
34317;SDS011;20582;52.196;20.952;2023-01-01T07:37:17;8.60;;;4.32;;
34317;SDS011;20582;52.196;20.952;2023-01-01T07:39:44;10.27;;;4.57;;
34317;SDS011;20582;52.196;20.952;2023-01-01T07:42:10;11.18;;;4.25;;
34317;SDS011;20582;52.196;20.952;2023-01-01T07:44:36;9.30;;;4.38;;
34317;SDS011;20582;52.196;20.952;2023-01-01T07:47:02;8.63;;;3.97;;
34317;SDS011;20582;52.196;20.952;2023-01-01T07:49:29;9.68;;;4.10;;
34317;SDS011;20582;52.196;20.952;2023-01-01T07:51:54;8.18;;;3.72;;
34317;SDS011;20582;52.196;20.952;2023-01-01T07:54:20;8.70;;;3.72;;
34317;SDS011;20582;52.196;20.952;2023-01-01T07:56:46;10.85;;;4.22;;
34317;SDS011;20582;52.196;20.952;2023-01-01T07:59:12;11.48;;;4.00;;
34317;SDS011;20582;52.196;20.952;2023-01-01T08:01:38;8.55;;;4.20;;
34317;SDS011;20582;52.196;20.952;2023-01-01T08:04:04;9.13;;;3.72;;
34317;SDS011;20582;52.196;20.952;2023-01-01T08:06:30;9.65;;;3.72;;
34317;SDS011;20582;52.196;20.952;2023-01-01T08:08:56;11.70;;;3.70;;
34317;SDS011;20582;52.196;20.952;2023-01-01T08:11:22;10.25;;;3.90;;
34317;SDS011;20582;52.196;20.952;2023-01-01T08:13:48;10.40;;;4.10;;
34317;SDS011;20582;52.196;20.952;2023-01-01T08:16:15;9.07;;;3.72;;
34317;SDS011;20582;52.196;20.952;2023-01-01T08:18:41;9.88;;;3.72;;
34317;SDS011;20582;52.196;20.952;2023-01-01T08:21:07;10.18;;;4.40;;
34317;SDS011;20582;52.196;20.952;2023-01-01T08:23:33;13.73;;;4.05;;
34317;SDS011;20582;52.196;20.952;2023-01-01T08:26:00;10.68;;;4.00;;
34317;SDS011;20582;52.196;20.952;2023-01-01T08:28:26;10.13;;;3.80;;
34317;SDS011;20582;52.196;20.952;2023-01-01T08:30:52;8.85;;;3.83;;
34317;SDS011;20582;52.196;20.952;2023-01-01T08:33:18;12.73;;;4.20;;
34317;SDS011;20582;52.196;20.952;2023-01-01T08:35:45;11.18;;;4.35;;
34317;SDS011;20582;52.196;20.952;2023-01-01T08:38:11;12.35;;;4.30;;
34317;SDS011;20582;52.196;20.952;2023-01-01T08:40:37;13.25;;;4.10;;
34317;SDS011;20582;52.196;20.952;2023-01-01T08:43:03;11.80;;;4.20;;
34317;SDS011;20582;52.196;20.952;2023-01-01T08:45:29;10.43;;;4.30;;
34317;SDS011;20582;52.196;20.952;2023-01-01T08:47:55;12.43;;;4.40;;
34317;SDS011;20582;52.196;20.952;2023-01-01T08:50:21;9.63;;;4.50;;
34317;SDS011;20582;52.196;20.952;2023-01-01T08:52:47;11.93;;;4.10;;
34317;SDS011;20582;52.196;20.952;2023-01-01T08:55:13;10.23;;;4.35;;
34317;SDS011;20582;52.196;20.952;2023-01-01T08:57:39;10.20;;;4.57;;
34317;SDS011;20582;52.196;20.952;2023-01-01T09:00:05;10.48;;;4.25;;
34317;SDS011;20582;52.196;20.952;2023-01-01T09:02:33;9.63;;;4.45;;
34317;SDS011;20582;52.196;20.952;2023-01-01T09:04:59;13.43;;;4.40;;
34317;SDS011;20582;52.196;20.952;2023-01-01T09:07:25;10.45;;;4.10;;
34317;SDS011;20582;52.196;20.952;2023-01-01T09:09:51;12.40;;;4.57;;
34317;SDS011;20582;52.196;20.952;2023-01-01T09:12:17;14.30;;;4.20;;
34317;SDS011;20582;52.196;20.952;2023-01-01T09:14:45;10.63;;;4.18;;
34317;SDS011;20582;52.196;20.952;2023-01-01T09:17:12;11.05;;;4.72;;
34317;SDS011;20582;52.196;20.952;2023-01-01T09:19:38;10.52;;;4.47;;
34317;SDS011;20582;52.196;20.952;2023-01-01T09:22:07;13.05;;;4.22;;
34317;SDS011;20582;52.196;20.952;2023-01-01T09:24:33;12.07;;;4.40;;
34317;SDS011;20582;52.196;20.952;2023-01-01T09:26:59;12.80;;;4.32;;
34317;SDS011;20582;52.196;20.952;2023-01-01T09:29:25;10.73;;;4.38;;
34317;SDS011;20582;52.196;20.952;2023-01-01T09:31:51;11.43;;;4.10;;
34317;SDS011;20582;52.196;20.952;2023-01-01T09:34:17;9.88;;;4.15;;
34317;SDS011;20582;52.196;20.952;2023-01-01T09:36:43;12.75;;;4.78;;
34317;SDS011;20582;52.196;20.952;2023-01-01T09:39:10;10.65;;;4.22;;
34317;SDS011;20582;52.196;20.952;2023-01-01T09:47:03;13.40;;;4.50;;
34317;SDS011;20582;52.196;20.952;2023-01-01T09:49:33;10.50;;;3.60;;
34317;SDS011;20582;52.196;20.952;2023-01-01T09:52:00;10.05;;;3.90;;
34317;SDS011;20582;52.196;20.952;2023-01-01T09:54:33;12.18;;;4.00;;
34317;SDS011;20582;52.196;20.952;2023-01-01T09:57:02;12.90;;;4.45;;
34317;SDS011;20582;52.196;20.952;2023-01-01T09:59:30;12.13;;;3.72;;
34317;SDS011;20582;52.196;20.952;2023-01-01T10:07:33;10.32;;;3.88;;
34317;SDS011;20582;52.196;20.952;2023-01-01T10:10:07;13.20;;;4.13;;
34317;SDS011;20582;52.196;20.952;2023-01-01T10:12:51;17.92;;;4.28;;
34317;SDS011;20582;52.196;20.952;2023-01-01T10:15:20;13.88;;;4.15;;
34317;SDS011;20582;52.196;20.952;2023-01-01T10:17:49;11.48;;;4.00;;
34317;SDS011;20582;52.196;20.952;2023-01-01T10:23:06;13.25;;;4.30;;
34317;SDS011;20582;52.196;20.952;2023-01-01T10:25:35;17.33;;;4.30;;
34317;SDS011;20582;52.196;20.952;2023-01-01T10:30:36;11.88;;;4.35;;
34317;SDS011;20582;52.196;20.952;2023-01-01T10:33:04;10.02;;;3.90;;
34317;SDS011;20582;52.196;20.952;2023-01-01T10:35:36;14.15;;;3.97;;
34317;SDS011;20582;52.196;20.952;2023-01-01T10:38:04;13.55;;;4.03;;
34317;SDS011;20582;52.196;20.952;2023-01-01T10:40:30;14.55;;;4.30;;
34317;SDS011;20582;52.196;20.952;2023-01-01T10:43:00;10.82;;;4.00;;
34317;SDS011;20582;52.196;20.952;2023-01-01T10:53:17;11.35;;;3.88;;
34317;SDS011;20582;52.196;20.952;2023-01-01T10:55:48;14.18;;;4.47;;
34317;SDS011;20582;52.196;20.952;2023-01-01T11:00:59;10.75;;;3.97;;
34317;SDS011;20582;52.196;20.952;2023-01-01T11:03:25;13.07;;;4.20;;
34317;SDS011;20582;52.196;20.952;2023-01-01T11:08:26;11.10;;;3.90;;
34317;SDS011;20582;52.196;20.952;2023-01-01T11:10:53;16.30;;;4.53;;
34317;SDS011;20582;52.196;20.952;2023-01-01T11:13:20;14.23;;;3.85;;
34317;SDS011;20582;52.196;20.952;2023-01-01T11:15:46;12.13;;;3.80;;
34317;SDS011;20582;52.196;20.952;2023-01-01T11:18:19;11.40;;;4.13;;
34317;SDS011;20582;52.196;20.952;2023-01-01T11:20:50;15.18;;;4.00;;
34317;SDS011;20582;52.196;20.952;2023-01-01T11:23:33;13.48;;;4.35;;
34317;SDS011;20582;52.196;20.952;2023-01-01T11:28:29;13.02;;;4.00;;
34317;SDS011;20582;52.196;20.952;2023-01-01T11:31:03;13.13;;;3.95;;
34317;SDS011;20582;52.196;20.952;2023-01-01T11:33:31;11.68;;;4.20;;
34317;SDS011;20582;52.196;20.952;2023-01-01T11:35:57;11.65;;;4.13;;
34317;SDS011;20582;52.196;20.952;2023-01-01T11:38:24;11.00;;;3.80;;
34317;SDS011;20582;52.196;20.952;2023-01-01T11:40:50;12.77;;;4.30;;
34317;SDS011;20582;52.196;20.952;2023-01-01T11:43:21;15.32;;;4.15;;
34317;SDS011;20582;52.196;20.952;2023-01-01T11:45:47;12.57;;;3.70;;
34317;SDS011;20582;52.196;20.952;2023-01-01T11:48:27;14.25;;;4.18;;
34317;SDS011;20582;52.196;20.952;2023-01-01T11:50:54;10.77;;;3.90;;
34317;SDS011;20582;52.196;20.952;2023-01-01T11:58:33;9.55;;;3.53;;
34317;SDS011;20582;52.196;20.952;2023-01-01T12:01:11;13.77;;;4.03;;
34317;SDS011;20582;52.196;20.952;2023-01-01T12:06:09;13.25;;;4.47;;
34317;SDS011;20582;52.196;20.952;2023-01-01T12:08:38;11.27;;;3.90;;
34317;SDS011;20582;52.196;20.952;2023-01-01T12:11:09;13.15;;;4.20;;
34317;SDS011;20582;52.196;20.952;2023-01-01T12:13:44;13.80;;;3.65;;
34317;SDS011;20582;52.196;20.952;2023-01-01T12:16:13;11.95;;;4.07;;
34317;SDS011;20582;52.196;20.952;2023-01-01T12:18:45;10.25;;;3.95;;
34317;SDS011;20582;52.196;20.952;2023-01-01T12:21:21;12.68;;;4.40;;
34317;SDS011;20582;52.196;20.952;2023-01-01T12:23:49;12.65;;;3.88;;
34317;SDS011;20582;52.196;20.952;2023-01-01T12:31:11;11.80;;;4.22;;
34317;SDS011;20582;52.196;20.952;2023-01-01T12:42:01;12.88;;;4.00;;
34317;SDS011;20582;52.196;20.952;2023-01-01T12:44:39;12.10;;;3.83;;
34317;SDS011;20582;52.196;20.952;2023-01-01T12:47:21;8.45;;;3.72;;
34317;SDS011;20582;52.196;20.952;2023-01-01T12:52:27;14.45;;;4.50;;
34317;SDS011;20582;52.196;20.952;2023-01-01T12:57:29;9.60;;;3.70;;
34317;SDS011;20582;52.196;20.952;2023-01-01T12:59:56;12.80;;;4.10;;
34317;SDS011;20582;52.196;20.952;2023-01-01T13:02:25;9.27;;;4.20;;
34317;SDS011;20582;52.196;20.952;2023-01-01T13:04:54;10.45;;;4.75;;
34317;SDS011;20582;52.196;20.952;2023-01-01T13:07:33;11.20;;;4.43;;
34317;SDS011;20582;52.196;20.952;2023-01-01T13:10:34;12.15;;;4.25;;
34317;SDS011;20582;52.196;20.952;2023-01-01T13:12:53;14.10;;;4.38;;
34317;SDS011;20582;52.196;20.952;2023-01-01T13:20:39;13.30;;;4.57;;
34317;SDS011;20582;52.196;20.952;2023-01-01T13:23:38;11.95;;;4.32;;
34317;SDS011;20582;52.196;20.952;2023-01-01T13:26:29;14.50;;;4.43;;
34317;SDS011;20582;52.196;20.952;2023-01-01T13:28:37;13.43;;;4.38;;
34317;SDS011;20582;52.196;20.952;2023-01-01T13:31:03;11.57;;;4.53;;
34317;SDS011;20582;52.196;20.952;2023-01-01T13:33:30;13.98;;;4.60;;
34317;SDS011;20582;52.196;20.952;2023-01-01T13:50:02;15.85;;;4.47;;
34317;SDS011;20582;52.196;20.952;2023-01-01T13:54:51;12.48;;;4.18;;
34317;SDS011;20582;52.196;20.952;2023-01-01T13:59:48;13.88;;;4.30;;
34317;SDS011;20582;52.196;20.952;2023-01-01T14:02:27;11.23;;;4.82;;
34317;SDS011;20582;52.196;20.952;2023-01-01T14:07:50;13.20;;;4.20;;
34317;SDS011;20582;52.196;20.952;2023-01-01T14:12:42;13.60;;;4.75;;
34317;SDS011;20582;52.196;20.952;2023-01-01T14:18:13;13.93;;;4.40;;
34317;SDS011;20582;52.196;20.952;2023-01-01T14:20:41;15.25;;;4.75;;
34317;SDS011;20582;52.196;20.952;2023-01-01T14:23:09;14.90;;;6.80;;
34317;SDS011;20582;52.196;20.952;2023-01-01T14:25:36;14.65;;;4.78;;
34317;SDS011;20582;52.196;20.952;2023-01-01T14:28:02;13.50;;;4.97;;
34317;SDS011;20582;52.196;20.952;2023-01-01T14:30:30;13.52;;;5.00;;
34317;SDS011;20582;52.196;20.952;2023-01-01T14:33:00;13.57;;;4.57;;
34317;SDS011;20582;52.196;20.952;2023-01-01T14:35:27;11.00;;;4.43;;
34317;SDS011;20582;52.196;20.952;2023-01-01T14:37:53;8.88;;;4.63;;
34317;SDS011;20582;52.196;20.952;2023-01-01T14:40:20;10.85;;;4.60;;
34317;SDS011;20582;52.196;20.952;2023-01-01T14:42:53;13.88;;;4.72;;
34317;SDS011;20582;52.196;20.952;2023-01-01T14:45:20;13.18;;;4.60;;
34317;SDS011;20582;52.196;20.952;2023-01-01T14:47:50;10.43;;;4.72;;
34317;SDS011;20582;52.196;20.952;2023-01-01T14:50:27;17.33;;;5.57;;
34317;SDS011;20582;52.196;20.952;2023-01-01T14:53:03;11.55;;;4.93;;
34317;SDS011;20582;52.196;20.952;2023-01-01T14:55:31;10.52;;;4.72;;
34317;SDS011;20582;52.196;20.952;2023-01-01T14:57:58;9.73;;;4.90;;
34317;SDS011;20582;52.196;20.952;2023-01-01T15:00:26;12.30;;;4.82;;
34317;SDS011;20582;52.196;20.952;2023-01-01T15:02:52;13.43;;;5.40;;
34317;SDS011;20582;52.196;20.952;2023-01-01T15:08:00;11.77;;;4.80;;
34317;SDS011;20582;52.196;20.952;2023-01-01T15:10:27;14.45;;;5.38;;
34317;SDS011;20582;52.196;20.952;2023-01-01T15:12:54;10.95;;;5.10;;
34317;SDS011;20582;52.196;20.952;2023-01-01T15:15:32;13.38;;;5.35;;
34317;SDS011;20582;52.196;20.952;2023-01-01T15:17:58;12.50;;;4.75;;
34317;SDS011;20582;52.196;20.952;2023-01-01T15:20:24;15.20;;;4.93;;
34317;SDS011;20582;52.196;20.952;2023-01-01T15:22:50;10.65;;;5.30;;
34317;SDS011;20582;52.196;20.952;2023-01-01T15:25:17;10.07;;;5.03;;
34317;SDS011;20582;52.196;20.952;2023-01-01T15:27:53;11.00;;;5.03;;
34317;SDS011;20582;52.196;20.952;2023-01-01T15:30:22;13.82;;;5.53;;
34317;SDS011;20582;52.196;20.952;2023-01-01T15:32:48;11.10;;;5.05;;
34317;SDS011;20582;52.196;20.952;2023-01-01T15:35:18;13.48;;;5.20;;
34317;SDS011;20582;52.196;20.952;2023-01-01T15:37:46;9.48;;;4.95;;
34317;SDS011;20582;52.196;20.952;2023-01-01T15:47:36;13.25;;;5.85;;
34317;SDS011;20582;52.196;20.952;2023-01-01T15:50:10;14.90;;;5.68;;
34317;SDS011;20582;52.196;20.952;2023-01-01T15:52:36;11.20;;;6.05;;
34317;SDS011;20582;52.196;20.952;2023-01-01T15:55:03;14.20;;;5.45;;
34317;SDS011;20582;52.196;20.952;2023-01-01T15:57:29;13.93;;;6.07;;
34317;SDS011;20582;52.196;20.952;2023-01-01T15:59:55;13.23;;;5.40;;
34317;SDS011;20582;52.196;20.952;2023-01-01T16:02:24;13.23;;;5.43;;
34317;SDS011;20582;52.196;20.952;2023-01-01T16:04:51;10.18;;;5.30;;
34317;SDS011;20582;52.196;20.952;2023-01-01T16:07:19;12.38;;;5.70;;
34317;SDS011;20582;52.196;20.952;2023-01-01T16:09:47;12.40;;;5.40;;
34317;SDS011;20582;52.196;20.952;2023-01-01T16:12:13;10.77;;;5.50;;
34317;SDS011;20582;52.196;20.952;2023-01-01T16:14:39;10.52;;;5.18;;
34317;SDS011;20582;52.196;20.952;2023-01-01T16:17:08;12.63;;;5.75;;
34317;SDS011;20582;52.196;20.952;2023-01-01T16:19:37;13.98;;;6.13;;
34317;SDS011;20582;52.196;20.952;2023-01-01T16:22:03;11.95;;;6.30;;
34317;SDS011;20582;52.196;20.952;2023-01-01T16:24:29;13.80;;;7.05;;
34317;SDS011;20582;52.196;20.952;2023-01-01T16:26:55;11.60;;;5.53;;
34317;SDS011;20582;52.196;20.952;2023-01-01T16:29:21;16.27;;;5.68;;
34317;SDS011;20582;52.196;20.952;2023-01-01T16:31:47;13.25;;;5.50;;
34317;SDS011;20582;52.196;20.952;2023-01-01T16:34:15;11.70;;;5.90;;
34317;SDS011;20582;52.196;20.952;2023-01-01T16:36:42;11.15;;;5.85;;
34317;SDS011;20582;52.196;20.952;2023-01-01T16:39:08;10.70;;;5.35;;
34317;SDS011;20582;52.196;20.952;2023-01-01T16:41:34;12.68;;;5.80;;
34317;SDS011;20582;52.196;20.952;2023-01-01T16:44:00;12.55;;;6.28;;